Time;durP1;ratioP1;P1;durP2;ratioP2;P2;SDS_P1;SDS_P2;PMS_P1;PMS_P2;Temp;Humidity;BMP_temperature;BMP_pressure;BME280_temperature;BME280_humidity;BME280_pressure;Samples;Min_cycle;Max_cycle;Signal;HPM_P1;HPM_P2
2022/12/06 00:00:06;;;;;;;16.00;12.10;;;;;;;4.31;100.00;101987.53;5032421;28;20091;-54
2022/12/06 00:02:32;;;;;;;12.27;10.05;;;;;;;4.33;100.00;101998.88;5032338;28;20021;-54
2022/12/06 00:04:57;;;;;;;14.32;10.32;;;;;;;4.34;100.00;102000.59;5032493;28;20562;-54
2022/12/06 00:07:22;;;;;;;10.93;9.48;;;;;;;4.34;100.00;101997.97;5031333;28;20037;-54
2022/12/06 00:09:48;;;;;;;11.00;9.48;;;;;;;4.33;100.00;101997.13;5032576;28;20018;-56
2022/12/06 00:12:13;;;;;;;11.20;9.88;;;;;;;4.34;100.00;101997.97;5032124;28;20502;-55
2022/12/06 00:14:38;;;;;;;11.15;9.50;;;;;;;4.35;100.00;101999.72;5031990;28;20049;-52
2022/12/06 00:17:03;;;;;;;10.85;8.98;;;;;;;4.35;100.00;102002.34;5031807;28;20049;-52
2022/12/06 00:19:29;;;;;;;14.25;10.13;;;;;;;4.35;100.00;101997.06;5027554;28;20036;-54
2022/12/06 00:21:54;;;;;;;15.55;10.60;;;;;;;4.35;100.00;101997.06;5031043;28;20017;-53
2022/12/06 00:24:21;;;;;;;20.02;11.02;;;;;;;4.35;100.00;101997.06;5032532;28;20033;-54
2022/12/06 00:26:48;;;;;;;11.93;9.50;;;;;;;4.36;100.00;102001.41;5031396;28;20049;-54
2022/12/06 00:29:17;;;;;;;13.07;9.95;;;;;;;4.34;100.00;101996.19;5028006;28;20033;-53
2022/12/06 00:31:43;;;;;;;13.30;9.65;;;;;;;4.36;100.00;101993.53;5032169;28;20036;-52
2022/12/06 00:34:08;;;;;;;12.32;9.45;;;;;;;4.35;100.00;101997.06;5036154;28;20021;-53
2022/12/06 00:36:37;;;;;;;14.60;10.50;;;;;;;4.35;100.00;101997.06;5031841;28;20100;-52
2022/12/06 00:39:10;;;;;;;10.82;9.73;;;;;;;4.34;100.00;101995.34;5031519;28;20033;-53
2022/12/06 00:41:36;;;;;;;12.52;9.77;;;;;;;4.33;100.00;101998.88;5032099;28;20029;-54
2022/12/06 00:44:01;;;;;;;11.68;9.85;;;;;;;4.33;100.00;101998.88;5028326;28;20452;-55
2022/12/06 00:46:29;;;;;;;11.60;9.43;;;;;;;4.34;100.00;101988.31;5031692;28;20037;-52
2022/12/06 00:48:56;;;;;;;11.43;9.80;;;;;;;4.34;100.00;101990.94;5026996;28;20498;-52
2022/12/06 00:51:23;;;;;;;12.48;9.40;;;;;;;4.34;100.00;101993.56;5031966;28;20029;-51
2022/12/06 00:53:48;;;;;;;11.05;9.10;;;;;;;4.35;100.00;101989.19;5031600;28;20032;-53
2022/12/06 00:56:14;;;;;;;10.75;9.10;;;;;;;4.35;100.00;101997.06;5031539;28;20033;-53
2022/12/06 00:58:39;;;;;;;10.55;8.93;;;;;;;4.35;100.00;101995.28;5032005;28;20025;-53
2022/12/06 01:01:20;;;;;;;11.10;8.80;;;;;;;4.36;100.00;101996.16;5026710;28;20033;-54
2022/12/06 01:03:50;;;;;;;10.93;8.55;;;;;;;4.35;100.00;101997.06;5029469;28;20044;-55
2022/12/06 01:06:17;;;;;;;10.13;9.02;;;;;;;4.35;100.00;101999.72;5031995;28;20034;-52
2022/12/06 01:08:43;;;;;;;9.88;8.77;;;;;;;4.36;100.00;101993.53;5030799;28;20383;-51
2022/12/06 01:11:11;;;;;;;9.52;8.63;;;;;;;4.37;100.00;102000.50;5031609;28;20025;-51
2022/12/06 01:13:37;;;;;;;11.20;9.50;;;;;;;4.36;100.00;101996.16;5031573;28;20021;-52
2022/12/06 01:16:14;;;;;;;10.38;8.65;;;;;;;4.36;100.00;101994.38;5031538;28;20021;-52
2022/12/06 01:18:40;;;;;;;10.90;8.90;;;;;;;4.37;100.00;101998.72;5030271;28;20630;-53
2022/12/06 01:21:09;;;;;;;10.20;8.68;;;;;;;4.37;100.00;101997.88;5031712;28;20029;-52
2022/12/06 01:23:35;;;;;;;11.45;8.75;;;;;;;4.36;100.00;101991.72;5030921;28;20049;-54
2022/12/06 01:26:02;;;;;;;11.13;9.20;;;;;;;4.35;100.00;101997.06;5031220;28;20034;-52
2022/12/06 01:28:27;;;;;;;10.75;8.40;;;;;;;4.36;100.00;102001.41;5030660;28;20050;-53
2022/12/06 01:30:52;;;;;;;11.45;9.02;;;;;;;4.38;100.00;102002.22;5031643;28;20036;-52
2022/12/06 01:33:18;;;;;;;11.60;9.02;;;;;;;4.39;100.00;101993.41;5031600;28;20029;-55
2022/12/06 01:35:43;;;;;;;12.57;8.73;;;;;;;4.37;100.00;101995.25;5031149;28;20129;-52
2022/12/06 01:38:09;;;;;;;9.32;8.32;;;;;;;4.38;100.00;101999.59;5030800;28;20026;-53
2022/12/06 01:40:40;;;;;;;9.70;8.05;;;;;;;4.37;100.00;101993.47;5031190;28;20021;-52
2022/12/06 01:43:25;;;;;;;12.05;8.30;;;;;;;4.38;100.00;101999.59;5031412;28;20052;-53
2022/12/06 01:45:51;;;;;;;9.60;8.35;;;;;;;4.38;100.00;101997.84;5029802;28;20442;-53
2022/12/06 01:48:25;;;;;;;10.05;8.52;;;;;;;4.39;100.00;101999.53;5034638;28;20021;-51
2022/12/06 01:50:52;;;;;;;12.02;8.73;;;;;;;4.39;100.00;101993.41;5030935;28;20037;-53
2022/12/06 01:53:18;;;;;;;11.45;7.97;;;;;;;4.40;100.00;101992.53;5031541;28;20391;-55
2022/12/06 01:55:44;;;;;;;14.18;8.60;;;;;;;4.39;100.00;101982.91;5030714;28;20083;-53
2022/12/06 01:58:16;;;;;;;12.02;9.20;;;;;;;4.37;100.00;101988.22;5031441;28;20493;-51
2022/12/06 02:00:41;;;;;;;13.68;9.05;;;;;;;4.39;100.00;101990.78;5030775;28;20065;-54
2022/12/06 02:03:11;;;;;;;12.77;9.95;;;;;;;4.38;100.00;101979.41;5034880;28;20068;-52
2022/12/06 02:05:37;;;;;;;10.90;8.43;;;;;;;4.40;100.00;101989.91;5046795;28;20029;-55
2022/12/06 02:08:03;;;;;;;14.52;8.85;;;;;;;4.39;100.00;101993.41;5034440;28;20476;-53
2022/12/06 02:10:28;;;;;;;10.02;8.80;;;;;;;4.38;100.00;101986.44;5035002;28;20083;-54
2022/12/06 02:12:56;;;;;;;12.95;8.50;;;;;;;4.37;100.00;101987.34;5034650;28;20438;-54
2022/12/06 02:15:35;;;;;;;11.27;8.07;;;;;;;4.39;100.00;101988.16;5033890;28;20025;-55
2022/12/06 02:18:18;;;;;;;;;;;;;;;4.45;100.00;101987.97;5034106;28;20038;-52
2022/12/06 02:20:56;;;;;;;8.93;7.60;;;;;;;4.37;100.00;101985.59;5033397;28;20003;-52
2022/12/06 02:24:05;;;;;;;9.90;7.38;;;;;;;4.38;100.00;101991.69;5034371;28;20052;-51
2022/12/06 02:26:46;;;;;;;8.32;7.53;;;;;;;4.35;100.00;101982.16;5026370;28;20088;-53
2022/12/06 02:29:24;;;;;;;9.27;7.85;;;;;;;4.35;100.00;101987.41;5025288;28;20037;-54
2022/12/06 02:31:57;;;;;;;10.02;7.78;;;;;;;4.36;100.00;101988.25;5038046;28;20493;-52
2022/12/06 02:34:49;;;;;;;13.25;8.35;;;;;;;4.37;100.00;101984.72;5035129;28;20525;-51
2022/12/06 02:37:23;;;;;;;10.57;7.45;;;;;;;4.36;100.00;101980.38;5032831;28;20017;-56
2022/12/06 02:39:59;;;;;;;10.18;7.53;;;;;;;4.35;100.00;101979.50;5034348;28;20124;-54
2022/12/06 02:42:31;;;;;;;11.98;7.97;;;;;;;4.35;100.00;101978.66;5034698;28;20433;-52
2022/12/06 02:45:01;;;;;;;12.75;7.60;;;;;;;4.34;100.00;101980.41;5034155;28;20036;-56
2022/12/06 02:47:35;;;;;;;9.85;7.28;;;;;;;4.30;100.00;101973.53;5027708;28;20034;-51
2022/12/06 02:50:07;;;;;;;10.73;7.65;;;;;;;4.33;100.00;101975.19;5037024;28;20491;-55
2022/12/06 02:52:37;;;;;;;11.80;7.20;;;;;;;4.33;100.00;101975.19;5033917;28;20080;-54
2022/12/06 02:55:05;;;;;;;9.65;7.88;;;;;;;4.34;100.00;101976.94;5034283;28;20041;-52
2022/12/06 02:57:45;;;;;;;9.40;7.47;;;;;;;4.35;100.00;101984.78;5033264;28;20048;-51
2022/12/06 03:00:35;;;;;;;9.95;7.40;;;;;;;4.35;100.00;101976.03;5033611;28;20438;-53
2022/12/06 03:03:27;;;;;;;10.07;7.32;;;;;;;4.36;100.00;101975.09;5024571;28;20029;-53
2022/12/06 03:06:02;;;;;;;9.10;7.30;;;;;;;4.35;100.00;101976.03;5031305;28;20151;-52
2022/12/06 03:08:30;;;;;;;11.48;7.03;;;;;;;4.34;100.00;101974.31;5033388;28;20084;-54
2022/12/06 03:11:00;;;;;;;10.80;7.75;;;;;;;4.34;100.00;101969.88;5033972;28;20091;-55
2022/12/06 03:13:46;;;;;;;9.90;7.18;;;;;;;4.35;100.00;101970.78;5032174;28;20052;-55
2022/12/06 03:16:21;;;;;;;9.50;7.47;;;;;;;4.34;100.00;101971.66;5033818;28;20030;-52
2022/12/06 03:18:57;;;;;;;10.85;8.00;;;;;;;4.36;100.00;101972.47;5032430;28;20068;-51
2022/12/06 03:21:45;;;;;;;14.65;7.80;;;;;;;4.38;100.00;101975.91;5033319;28;20112;-54
2022/12/06 03:24:14;;;;;;;10.48;7.07;;;;;;;4.34;100.00;101972.53;5029909;28;20024;-54
2022/12/06 03:26:43;;;;;;;9.82;7.55;;;;;;;4.34;100.00;101977.78;5033328;28;20479;-53
2022/12/06 03:29:09;;;;;;;12.63;7.25;;;;;;;4.34;100.00;101979.56;5026674;28;20479;-54
2022/12/06 03:31:38;;;;;;;12.27;8.07;;;;;;;4.34;100.00;101980.41;5033270;28;20423;-52
2022/12/06 03:34:18;;;;;;;9.32;7.95;;;;;;;4.35;100.00;101982.16;5034250;28;20037;-53
2022/12/06 03:36:46;;;;;;;11.40;8.50;;;;;;;4.34;100.00;101985.66;5033230;28;20034;-55
2022/12/06 03:39:14;;;;;;;13.63;8.95;;;;;;;4.32;100.00;101973.50;5030278;28;20052;-55
2022/12/06 03:41:48;;;;;;;12.87;9.07;;;;;;;4.34;100.00;101976.94;5033597;28;20617;-54
2022/12/06 03:44:14;;;;;;;14.93;9.05;;;;;;;4.35;100.00;101978.66;5032752;28;20029;-53
2022/12/06 03:46:48;;;;;;;14.27;9.55;;;;;;;4.35;100.00;101970.78;5033021;28;20510;-55
2022/12/06 03:49:19;;;;;;;13.30;8.73;;;;;;;4.34;100.00;101975.16;5032710;28;20034;-55
2022/12/06 03:51:45;;;;;;;15.65;9.85;;;;;;;4.35;100.00;101976.03;5033293;28;20532;-54
2022/12/06 03:54:11;;;;;;;15.48;9.55;;;;;;;4.33;100.00;101968.19;5032710;28;20060;-55
2022/12/06 03:56:37;;;;;;;16.13;9.90;;;;;;;4.35;100.00;101976.03;5032660;28;20096;-54
2022/12/06 03:59:08;;;;;;;16.70;9.45;;;;;;;4.34;100.00;101980.41;5031370;28;20029;-53
2022/12/06 04:01:33;;;;;;;15.05;9.93;;;;;;;4.35;100.00;101978.66;5033527;28;20029;-53
2022/12/06 04:03:59;;;;;;;11.98;9.13;;;;;;;4.35;100.00;101976.03;5031129;28;20525;-54
2022/12/06 04:06:25;;;;;;;15.38;9.82;;;;;;;4.35;100.00;101976.03;5033202;28;20502;-53
2022/12/06 04:08:50;;;;;;;18.55;9.95;;;;;;;4.33;100.00;101973.44;5032159;28;20022;-53
2022/12/06 04:11:16;;;;;;;13.50;9.10;;;;;;;4.33;100.00;101969.94;5032831;28;20029;-53
2022/12/06 04:13:41;;;;;;;16.42;10.02;;;;;;;4.34;100.00;101974.31;5032986;28;20499;-55
2022/12/06 04:18:09;;;;;;;17.67;10.35;;;;;;;4.34;100.00;101971.66;5032331;28;20025;-55
2022/12/06 04:18:53;;;;;;;16.35;9.77;;;;;;;4.34;100.00;101971.66;5030288;28;20034;-52
2022/12/06 04:23:57;;;;;;;15.15;10.15;;;;;;;4.32;100.00;101976.97;5029177;28;20061;-57
2022/12/06 04:26:24;;;;;;;13.90;9.88;;;;;;;4.32;100.00;101973.50;5031908;28;20060;-53
2022/12/06 04:39:49;;;;;;;16.33;9.50;;;;;;;4.31;100.00;101974.41;5032307;28;20386;-54
2022/12/06 04:44:58;;;;;;;16.17;10.75;;;;;;;4.31;100.00;101977.88;5023515;28;20399;-53
2022/12/06 04:47:23;;;;;;;17.40;10.48;;;;;;;4.30;100.00;101978.81;5037142;28;20021;-56
2022/12/06 04:49:49;;;;;;;17.42;10.40;;;;;;;4.31;100.00;101977.03;5032699;28;20467;-55
2022/12/06 04:52:15;;;;;;;16.65;10.43;;;;;;;4.30;100.00;101976.19;5032451;28;20060;-56
2022/12/06 04:54:40;;;;;;;17.73;10.45;;;;;;;4.30;100.00;101972.66;5031032;28;20107;-52
2022/12/06 04:57:10;;;;;;;18.45;10.57;;;;;;;4.30;100.00;101978.81;5032640;28;20021;-53
2022/12/06 04:59:37;;;;;;;15.43;10.32;;;;;;;4.29;100.00;101973.59;5032390;28;20494;-55
2022/12/06 05:02:04;;;;;;;20.27;9.95;;;;;;;4.29;100.00;101970.97;5031894;28;20037;-54
2022/12/06 05:04:29;;;;;;;17.88;10.85;;;;;;;4.29;100.00;101969.19;5032576;28;20033;-54
2022/12/06 05:06:55;;;;;;;19.25;10.25;;;;;;;4.30;100.00;101964.78;5027730;28;20388;-56
2022/12/06 05:09:20;;;;;;;17.25;9.95;;;;;;;4.29;100.00;101977.06;5032000;28;20097;-54
2022/12/06 05:11:45;;;;;;;16.67;9.85;;;;;;;4.30;100.00;101970.03;5032538;28;20108;-56
2022/12/06 05:14:11;;;;;;;22.60;10.10;;;;;;;4.29;100.00;101969.19;5031578;28;20037;-55
2022/12/06 05:16:36;;;;;;;17.38;10.18;;;;;;;4.29;100.00;101965.69;5031702;28;20438;-57
2022/12/06 05:19:02;;;;;;;14.70;9.48;;;;;;;4.30;100.00;101965.66;5031960;28;20033;-55
2022/12/06 05:21:27;;;;;;;20.38;10.02;;;;;;;4.29;100.00;101965.69;5031721;28;20513;-54
2022/12/06 05:23:54;;;;;;;16.75;9.13;;;;;;;4.29;100.00;101956.03;5030443;28;20468;-56
2022/12/06 05:26:22;;;;;;;13.73;9.57;;;;;;;4.29;100.00;101960.44;5032122;28;20021;-55
2022/12/06 05:28:48;;;;;;;18.77;9.65;;;;;;;4.30;100.00;101962.13;5031807;28;20108;-55
2022/12/06 05:31:14;;;;;;;15.32;9.10;;;;;;;4.30;100.00;101965.66;5031220;28;20053;-56
2022/12/06 05:33:39;;;;;;;16.83;9.32;;;;;;;4.30;100.00;101967.41;5032238;28;20515;-53
2022/12/06 05:36:25;;;;;;;15.27;9.40;;;;;;;4.31;100.00;101964.72;5031875;28;20029;-54
2022/12/06 05:38:51;;;;;;;16.52;8.48;;;;;;;4.29;100.00;101965.69;5035564;28;20430;-53
2022/12/06 05:41:18;;;;;;;14.20;9.25;;;;;;;4.29;100.00;101963.91;5035280;28;20060;-54
2022/12/06 05:43:44;;;;;;;13.60;8.73;;;;;;;4.29;100.00;101960.44;5035334;28;20021;-56
2022/12/06 05:46:09;;;;;;;14.32;9.00;;;;;;;4.29;100.00;101970.97;5035415;28;20071;-53
2022/12/06 05:48:34;;;;;;;15.68;8.02;;;;;;;4.29;100.00;101970.97;5038556;28;20081;-57
2022/12/06 05:51:00;;;;;;;15.80;8.73;;;;;;;4.28;100.00;101966.59;5035391;28;20020;-53
2022/12/06 05:53:25;;;;;;;13.45;8.32;;;;;;;4.25;100.00;101962.31;5035427;28;20039;-54
2022/12/06 05:55:50;;;;;;;16.10;8.75;;;;;;;4.25;100.00;101968.44;5034528;28;20468;-52
2022/12/06 05:58:17;;;;;;;18.45;8.10;;;;;;;4.24;100.00;101971.09;5035677;28;20460;-55
2022/12/06 06:00:48;;;;;;;12.82;8.60;;;;;;;4.24;100.00;101963.22;5033212;28;20571;-55
2022/12/06 06:03:15;;;;;;;15.60;7.80;;;;;;;4.24;100.00;101966.69;5034956;28;20116;-54
2022/12/06 06:05:45;;;;;;;16.13;8.43;;;;;;;4.24;100.00;101973.72;5034326;28;20590;-55
2022/12/06 06:08:11;;;;;;;13.88;7.80;;;;;;;4.22;100.00;101967.66;5035366;28;20105;-56
2022/12/06 06:10:36;;;;;;;13.02;7.75;;;;;;;4.20;100.00;101965.09;5034602;28;20120;-54
2022/12/06 06:13:03;;;;;;;14.98;8.32;;;;;;;4.19;100.00;101965.97;5035363;28;20460;-54
2022/12/06 06:15:28;;;;;;;14.10;7.72;;;;;;;4.19;100.00;101973.88;5034816;28;20387;-53
2022/12/06 06:17:53;;;;;;;14.90;7.93;;;;;;;4.17;100.00;101970.44;5034484;28;20017;-52
2022/12/06 06:20:19;;;;;;;16.83;7.97;;;;;;;4.17;100.00;101967.81;5034738;28;20098;-54
2022/12/06 06:22:44;;;;;;;14.75;8.43;;;;;;;4.19;100.00;101970.38;5038742;28;20031;-56
2022/12/06 06:25:09;;;;;;;13.20;8.50;;;;;;;4.17;100.00;101962.53;5034296;28;20476;-53
2022/12/06 06:27:36;;;;;;;13.80;8.05;;;;;;;4.16;100.00;101967.84;5034581;28;20960;-55
2022/12/06 06:30:07;;;;;;;15.07;8.98;;;;;;;4.16;100.00;101975.75;5033513;28;20045;-57
2022/12/06 06:32:33;;;;;;;15.75;8.27;;;;;;;4.15;100.00;101971.41;5033996;28;20109;-55
2022/12/06 06:34:58;;;;;;;14.80;7.97;;;;;;;4.15;100.00;101969.63;5034581;28;20108;-55
2022/12/06 06:37:24;;;;;;;14.98;8.15;;;;;;;4.15;100.00;101968.78;5034564;28;20037;-54
2022/12/06 06:39:49;;;;;;;11.90;8.40;;;;;;;4.12;100.00;101969.72;5034042;28;20029;-53
2022/12/06 06:42:14;;;;;;;12.55;7.70;;;;;;;4.12;100.00;101967.09;5036807;28;20038;-54
2022/12/06 06:44:40;;;;;;;14.63;8.60;;;;;;;4.11;100.00;101973.25;5041765;28;20083;-55
2022/12/06 06:47:05;;;;;;;18.23;8.23;;;;;;;4.10;100.00;101965.41;5033943;28;20392;-54
2022/12/06 06:49:30;;;;;;;15.48;8.50;;;;;;;4.09;100.00;101969.81;5041317;28;20159;-54
2022/12/06 06:51:56;;;;;;;17.15;9.13;;;;;;;4.07;100.00;101969.00;5034807;28;20395;-59
2022/12/06 06:54:21;;;;;;;11.80;8.43;;;;;;;4.05;100.00;101970.84;5034116;28;20044;-53
2022/12/06 06:56:46;;;;;;;14.70;7.80;;;;;;;4.03;100.00;101964.75;5036917;28;20032;-57
2022/12/06 06:59:12;;;;;;;14.07;8.13;;;;;;;4.01;100.00;101963.94;5031977;28;20482;-56
2022/12/06 07:01:37;;;;;;;14.50;7.43;;;;;;;3.97;100.00;101963.19;5031375;28;20029;-55
2022/12/06 07:04:02;;;;;;;16.60;7.47;;;;;;;3.91;100.00;101955.47;5027098;28;20033;-55
2022/12/06 07:06:28;;;;;;;15.43;7.82;;;;;;;3.88;100.00;101961.69;5030091;28;20450;-54
2022/12/06 07:08:53;;;;;;;11.82;7.95;;;;;;;3.85;100.00;101964.41;5028292;28;20077;-54
2022/12/06 07:11:18;;;;;;;12.73;7.60;;;;;;;3.81;100.00;101968.03;5031415;28;20025;-57
2022/12/06 07:13:44;;;;;;;13.50;8.02;;;;;;;3.78;100.00;101967.25;5029220;28;20443;-56
2022/12/06 07:16:15;;;;;;;12.95;7.95;;;;;;;3.74;100.00;101971.75;5031800;28;20067;-54
2022/12/06 07:18:41;;;;;;;12.80;6.95;;;;;;;3.71;100.00;101971.84;5029435;28;20473;-55
2022/12/06 07:21:09;;;;;;;13.55;7.93;;;;;;;3.65;100.00;101965.00;5029790;28;20101;-56
2022/12/06 07:23:35;;;;;;;15.63;7.78;;;;;;;3.65;100.00;101969.41;5028534;28;20065;-56
2022/12/06 07:26:22;;;;;;;13.32;7.45;;;;;;;3.59;100.00;101967.81;5030100;28;20029;-53
2022/12/06 07:28:49;;;;;;;10.02;6.70;;;;;;;3.56;100.00;101975.78;5031123;28;20049;-56
2022/12/06 07:31:18;;;;;;;17.42;7.38;;;;;;;3.58;100.00;101971.38;5030057;28;20035;-56
2022/12/06 07:33:44;;;;;;;13.73;7.20;;;;;;;3.56;100.00;101980.19;5030221;28;20029;-56
2022/12/06 07:36:11;;;;;;;12.20;7.40;;;;;;;3.51;100.00;101975.94;5030703;28;20017;-56
2022/12/06 07:38:37;;;;;;;12.13;6.85;;;;;;;3.51;100.00;101969.81;5032658;28;20025;-53
2022/12/06 07:46:38;;;;;;;10.15;6.82;;;;;;;3.51;100.00;101975.06;5032482;28;20136;-52
2022/12/06 07:49:04;;;;;;;11.82;7.07;;;;;;;3.49;100.00;101971.63;5031646;28;20112;-55
2022/12/06 07:51:30;;;;;;;11.40;7.32;;;;;;;3.49;100.00;101982.97;5029216;28;20029;-54
2022/12/06 07:53:56;;;;;;;9.13;6.82;;;;;;;3.49;100.00;101982.97;5034538;28;20025;-54
2022/12/06 07:56:21;;;;;;;12.88;6.85;;;;;;;3.50;100.00;101981.22;5031410;28;20450;-53
2022/12/06 07:58:46;;;;;;;11.93;7.20;;;;;;;3.49;100.00;101987.38;5034995;28;20518;-51
2022/12/06 08:01:12;;;;;;;10.60;6.85;;;;;;;3.50;100.00;101997.84;5034328;28;20075;-55
2022/12/06 08:03:37;;;;;;;11.52;6.85;;;;;;;3.49;100.00;101988.22;5033062;28;20026;-54
2022/12/06 08:06:03;;;;;;;13.10;6.93;;;;;;;3.49;100.00;101996.09;5029027;28;20152;-54
2022/12/06 08:08:30;;;;;;;13.10;7.15;;;;;;;3.49;100.00;102000.50;5029743;28;20494;-55
2022/12/06 08:10:59;;;;;;;10.35;7.05;;;;;;;3.49;100.00;101995.25;5035231;28;20029;-55
2022/12/06 08:13:24;;;;;;;;;;;;;;;3.58;100.00;101997.63;5032382;28;20039;-56
2022/12/06 08:15:50;;;;;;;12.43;7.00;;;;;;;3.52;100.00;101987.28;5027161;28;19917;-55
2022/12/06 08:18:15;;;;;;;16.70;6.90;;;;;;;3.54;100.00;101990.72;5031228;28;20633;-56
2022/12/06 08:20:40;;;;;;;17.20;6.78;;;;;;;3.54;100.00;101992.50;5029366;28;20021;-54
2022/12/06 08:23:06;;;;;;;15.32;6.50;;;;;;;3.54;100.00;101995.13;5028625;28;20076;-54
2022/12/06 08:25:31;;;;;;;10.40;6.35;;;;;;;3.54;100.00;101993.34;5028111;28;20475;-54
2022/12/06 08:27:56;;;;;;;11.95;7.07;;;;;;;3.55;100.00;101994.22;5031320;28;20041;-56
2022/12/06 08:30:21;;;;;;;10.05;7.20;;;;;;;3.56;100.00;101993.31;5030988;28;20468;-55
2022/12/06 08:32:47;;;;;;;13.32;6.95;;;;;;;3.59;100.00;101996.72;5029496;28;20022;-56
2022/12/06 08:35:12;;;;;;;17.10;8.27;;;;;;;3.59;100.00;101993.22;5028987;28;20021;-53
2022/12/06 08:37:37;;;;;;;13.45;7.32;;;;;;;3.62;100.00;101991.38;5031920;28;20021;-55
2022/12/06 08:40:03;;;;;;;12.32;7.60;;;;;;;3.63;100.00;101997.47;5032358;28;20022;-54
2022/12/06 08:42:28;;;;;;;12.25;6.85;;;;;;;3.65;100.00;101998.31;5030786;28;20033;-56
2022/12/06 08:44:54;;;;;;;11.70;7.32;;;;;;;3.67;100.00;102004.38;5030908;28;20029;-55
2022/12/06 08:47:19;;;;;;;11.65;7.13;;;;;;;3.67;100.00;102004.38;5030695;28;20052;-53
2022/12/06 08:49:44;;;;;;;14.38;6.88;;;;;;;3.66;100.00;101995.66;5031042;28;20091;-53
2022/12/06 08:52:10;;;;;;;12.43;7.38;;;;;;;3.64;100.00;101989.56;5031719;28;20029;-54
2022/12/06 08:54:35;;;;;;;12.40;7.05;;;;;;;3.65;100.00;101996.53;5031059;28;20496;-53
2022/12/06 08:57:01;;;;;;;13.90;6.97;;;;;;;3.66;100.00;101994.75;5030921;28;20022;-55
2022/12/06 08:59:26;;;;;;;12.05;6.93;;;;;;;3.68;100.00;101995.56;5030256;28;20029;-56
2022/12/06 09:01:51;;;;;;;12.50;7.63;;;;;;;3.73;100.00;102001.59;5030820;28;20112;-54
2022/12/06 09:04:17;;;;;;;13.10;7.18;;;;;;;3.78;100.00;102010.19;5030453;28;20041;-54
2022/12/06 09:06:44;;;;;;;12.32;7.30;;;;;;;3.84;100.00;102012.63;5026018;28;20044;-52
2022/12/06 09:09:11;;;;;;;15.07;7.60;;;;;;;3.88;100.00;102010.75;5026931;28;20029;-54
2022/12/06 09:11:38;;;;;;;16.95;8.23;;;;;;;3.98;100.00;102013.97;5028629;28;20503;-53
2022/12/06 09:14:04;;;;;;;15.50;7.55;;;;;;;4.03;100.00;102006.81;5032297;28;20079;-53
2022/12/06 09:16:29;;;;;;;13.65;8.73;;;;;;;4.13;100.00;102012.66;5033308;28;20021;-57
2022/12/06 09:18:54;;;;;;;15.85;8.20;;;;;;;4.20;100.00;102017.69;5035029;28;20040;-56
2022/12/06 09:21:23;;;;;;;15.02;7.75;;;;;;;4.30;100.00;102015.63;5034971;28;20029;-57
2022/12/06 09:23:49;;;;;;;17.02;8.02;;;;;;;4.42;100.00;102014.38;5032929;28;20108;-51
2022/12/06 09:26:15;;;;;;;16.70;7.75;;;;;;;4.47;100.00;102019.50;5034954;28;20029;-57
2022/12/06 09:28:42;;;;;;;16.00;7.97;;;;;;;4.50;100.00;102015.00;5031578;28;20781;-54
2022/12/06 09:31:08;;;;;;;14.45;8.30;;;;;;;4.58;100.00;102017.34;5031761;28;20055;-55
2022/12/06 09:33:34;;;;;;;14.18;7.32;;;;;;;4.71;100.00;102012.56;5033574;28;20087;-54
2022/12/06 09:36:03;;;;;;;12.65;6.80;;;;;;;4.75;100.00;102028.19;5033663;28;20052;-54
2022/12/06 09:38:30;;;;;;;;;;;;;;;4.83;100.00;102020.06;5035347;28;20040;-55
2022/12/06 09:41:14;;;;;;;11.38;6.07;;;;;;;4.90;100.00;102024.19;5034989;28;19905;-52
2022/12/06 09:44:05;;;;;;;10.02;6.22;;;;;;;5.00;100.00;102020.34;5033921;28;20036;-51
2022/12/06 09:46:50;;;;;;;10.63;6.63;;;;;;;5.15;100.00;102018.09;5034045;28;20439;-53
2022/12/06 09:49:27;;;;;;;10.55;6.72;;;;;;;5.14;100.00;102008.47;5006864;28;20037;-53
2022/12/06 09:52:11;;;;;;;9.15;6.28;;;;;;;5.26;100.00;102020.34;5031743;28;20069;-54
2022/12/06 09:54:39;;;;;;;12.07;5.88;;;;;;;5.38;100.00;102023.41;5034083;28;20033;-56
2022/12/06 09:57:19;;;;;;;8.02;5.88;;;;;;;5.49;100.00;102019.50;5038283;28;20049;-52
2022/12/06 10:00:07;;;;;;;10.10;6.28;;;;;;;5.60;100.00;102021.78;5033988;28;20080;-53
2022/12/06 10:03:06;;;;;;;10.75;6.00;;;;;;;5.72;100.00;102016.88;5022957;28;20052;-55
2022/12/06 10:05:40;;;;;;;12.63;5.63;;;;;;;5.84;100.00;102017.34;5028509;28;20037;-53
2022/12/06 10:08:31;;;;;;;8.50;5.32;;;;;;;5.91;100.00;102014.44;5034236;28;20483;-52
2022/12/06 10:11:15;;;;;;;9.32;5.63;;;;;;;5.97;100.00;102013.34;5032253;28;20102;-52
2022/12/06 10:14:01;;;;;;;9.88;5.45;;;;;;;6.06;100.00;102015.66;5032247;28;20458;-54
2022/12/06 10:16:45;;;;;;;13.18;5.78;;;;;;;6.15;100.00;102005.66;5029747;28;20060;-53
2022/12/06 10:19:44;;;;;;;7.35;5.43;;;;;;;6.29;100.00;102005.94;5031715;28;20036;-53
2022/12/06 10:22:15;;;;;;;;;;;;;;;6.39;100.00;102001.16;5026154;28;20033;-52
2022/12/06 10:24:58;;;;;;;7.25;4.55;;;;;;;6.39;100.00;102002.00;5031619;28;19913;-55
2022/12/06 10:27:37;;;;;;;7.57;4.82;;;;;;;6.56;100.00;102003.13;5032347;28;20049;-57
2022/12/06 10:30:09;;;;;;;7.10;5.20;;;;;;;6.59;100.00;102001.19;5031857;28;20392;-56
2022/12/06 10:32:45;;;;;;;8.82;5.35;;;;;;;6.76;100.00;101997.00;5032473;28;20093;-53
2022/12/06 10:35:17;;;;;;;7.93;4.55;;;;;;;6.87;100.00;101997.41;5025632;28;20028;-56
2022/12/06 10:37:57;;;;;;;8.85;4.85;;;;;;;6.97;100.00;102001.38;5032839;28;20384;-54
2022/12/06 10:40:53;;;;;;;7.07;4.55;;;;;;;7.07;100.00;101999.19;5033894;28;20040;-55
2022/12/06 10:43:42;;;;;;;7.30;4.47;;;;;;;7.08;98.52;101992.13;5025203;28;20041;-52
2022/12/06 10:49:21;;;;;;;6.20;4.00;;;;;;;7.25;98.01;102005.47;5024335;28;20112;-55
2022/12/06 10:52:16;;;;;;;6.95;4.47;;;;;;;7.29;97.29;102001.75;5021838;28;20045;-54
2022/12/06 10:54:54;;;;;;;5.63;4.45;;;;;;;7.35;97.58;102001.50;5034186;28;20029;-55
2022/12/06 10:57:29;;;;;;;6.05;3.78;;;;;;;7.37;96.62;102004.91;5024014;28;20522;-51
2022/12/06 11:00:01;;;;;;;4.05;3.50;;;;;;;7.43;96.21;102003.81;5030579;28;20531;-52
2022/12/06 11:02:41;;;;;;;7.90;3.67;;;;;;;7.46;96.51;102002.78;5028707;28;20037;-52
2022/12/06 11:05:20;;;;;;;6.20;3.50;;;;;;;7.49;95.33;102003.50;5026586;28;20029;-53
2022/12/06 11:07:48;;;;;;;7.05;3.63;;;;;;;7.47;94.39;102008.00;5033398;28;20601;-53
2022/12/06 11:10:27;;;;;;;6.50;3.53;;;;;;;7.56;94.52;102009.38;5033895;28;20027;-53
2022/12/06 11:13:09;;;;;;;5.90;3.50;;;;;;;7.52;93.25;101999.88;5032498;28;20061;-53
2022/12/06 11:15:39;;;;;;;5.20;3.35;;;;;;;7.60;93.95;101998.59;5033063;28;20041;-55
2022/12/06 11:18:16;;;;;;;5.03;3.40;;;;;;;7.60;93.57;101992.47;5029764;28;20036;-52
2022/12/06 11:21:11;;;;;;;6.13;3.42;;;;;;;7.70;94.22;101992.91;5028021;28;20033;-54
2022/12/06 11:23:54;;;;;;;5.25;3.20;;;;;;;7.70;92.56;101992.91;5026953;28;20037;-55
2022/12/06 11:26:37;;;;;;;6.95;3.65;;;;;;;7.72;91.95;101993.69;5031297;28;20056;-51
2022/12/06 11:29:08;;;;;;;5.05;3.10;;;;;;;7.68;91.02;101989.47;5032449;28;20056;-54
2022/12/06 11:31:41;;;;;;;7.35;3.53;;;;;;;7.73;92.55;101990.13;5024618;28;20033;-52
2022/12/06 11:34:17;;;;;;;8.07;3.58;;;;;;;7.77;92.72;101989.88;5031533;28;20132;-54
2022/12/06 11:36:44;;;;;;;4.88;3.10;;;;;;;7.80;91.36;101986.25;5031837;28;20407;-53
2022/12/06 11:39:13;;;;;;;6.18;3.60;;;;;;;7.82;91.61;101986.19;5033105;28;20025;-54
2022/12/06 11:41:38;;;;;;;5.75;3.50;;;;;;;7.85;92.39;101988.69;5025504;28;20022;-54
2022/12/06 11:44:04;;;;;;;9.73;3.10;;;;;;;7.85;88.80;101983.41;5039308;28;20029;-51
2022/12/06 11:46:30;;;;;;;7.97;3.10;;;;;;;7.87;87.99;101978.88;5030619;28;20124;-53
2022/12/06 11:49:11;;;;;;;5.22;2.75;;;;;;;7.89;87.40;101975.25;5032278;28;20105;-52
2022/12/06 11:51:37;;;;;;;9.63;3.40;;;;;;;7.90;88.52;101969.00;5029500;28;20479;-53
2022/12/06 11:54:02;;;;;;;8.07;3.10;;;;;;;7.87;87.38;101970.94;5023808;28;20033;-52
2022/12/06 11:56:31;;;;;;;5.88;3.00;;;;;;;7.88;87.01;101973.53;5032317;28;20034;-54